Time;durP1;ratioP1;P1;durP2;ratioP2;P2;SDS_P1;SDS_P2;PMS_P1;PMS_P2;Temp;Humidity;BMP_temperature;BMP_pressure;BME280_temperature;BME280_humidity;BME280_pressure;Samples;Min_cycle;Max_cycle;Signal;HPM_P1;HPM_P2
2023/06/02 00:00:00;;;;;;;0.60;0.60;;;10.70;99.90;;;;;;5118079;27;20427;-69
2023/06/02 00:02:29;;;;;;;0.50;0.50;;;10.70;99.90;;;;;;5117655;28;20122;-69
2023/06/02 00:04:59;;;;;;;0.40;0.40;;;10.70;99.90;;;;;;5117892;28;20043;-69
2023/06/02 00:07:28;;;;;;;0.40;0.40;;;10.70;99.90;;;;;;5118119;28;20047;-69
2023/06/02 00:09:55;;;;;;;0.50;0.50;;;10.80;99.90;;;;;;5117776;27;20452;-69
2023/06/02 00:12:21;;;;;;;0.60;0.60;;;10.70;99.90;;;;;;5117705;28;20050;-68
2023/06/02 00:14:47;;;;;;;0.50;0.50;;;11.20;99.90;;;;;;5117741;28;20032;-70
2023/06/02 00:17:14;;;;;;;0.50;0.50;;;10.80;99.90;;;;;;5117562;28;20052;-70
2023/06/02 00:19:42;;;;;;;0.85;0.85;;;10.70;99.90;;;;;;5117671;28;20425;-68
2023/06/02 00:22:15;;;;;;;0.50;0.50;;;10.60;99.90;;;;;;5117560;28;20085;-69
2023/06/02 00:24:41;;;;;;;0.50;0.50;;;10.60;99.90;;;;;;5117572;28;20050;-69
2023/06/02 00:27:07;;;;;;;0.50;0.50;;;10.60;99.90;;;;;;5117461;28;20039;-69
2023/06/02 00:29:33;;;;;;;0.50;0.50;;;10.60;99.90;;;;;;5117401;28;20040;-69
2023/06/02 00:31:58;;;;;;;0.50;0.50;;;10.60;99.90;;;;;;5117424;28;20118;-69
2023/06/02 00:34:24;;;;;;;0.50;0.50;;;10.60;99.90;;;;;;5117759;28;20032;-70
2023/06/02 00:36:50;;;;;;;0.50;0.50;;;10.50;99.90;;;;;;5117338;28;20101;-69
2023/06/02 00:39:15;;;;;;;0.50;0.50;;;10.60;99.90;;;;;;5117333;28;20036;-70
2023/06/02 00:41:41;;;;;;;0.50;0.50;;;10.50;99.90;;;;;;5117377;28;20028;-70
2023/06/02 00:44:06;;;;;;;0.50;0.50;;;10.60;99.90;;;;;;5117195;28;20467;-69
2023/06/02 00:46:32;;;;;;;0.50;0.50;;;10.60;99.90;;;;;;5117034;28;20036;-69
2023/06/02 00:48:58;;;;;;;0.50;0.50;;;10.60;99.90;;;;;;5116829;28;20039;-71
2023/06/02 00:51:23;;;;;;;0.50;0.50;;;10.60;99.90;;;;;;5117377;28;20040;-70
2023/06/02 00:53:50;;;;;;;0.77;0.77;;;10.70;99.90;;;;;;5117161;28;20130;-70
2023/06/02 00:56:16;;;;;;;0.52;0.52;;;10.60;99.90;;;;;;5115709;28;20036;-70
2023/06/02 00:58:45;;;;;;;0.50;0.50;;;10.50;99.90;;;;;;5116933;27;20459;-70
2023/06/02 01:01:12;;;;;;;0.50;0.50;;;10.60;99.90;;;;;;5116534;28;20035;-70
2023/06/02 01:03:45;;;;;;;0.50;0.50;;;10.60;99.90;;;;;;5117389;28;20066;-69
2023/06/02 01:06:13;;;;;;;0.50;0.50;;;10.60;99.90;;;;;;5116866;28;20043;-70
2023/06/02 01:08:40;;;;;;;0.50;0.50;;;10.60;99.90;;;;;;5116674;28;20036;-70
2023/06/02 01:11:07;;;;;;;0.50;0.50;;;10.50;99.90;;;;;;5116248;28;20046;-70
2023/06/02 01:13:33;;;;;;;0.50;0.50;;;10.50;99.90;;;;;;5115368;28;20039;-70
2023/06/02 01:15:59;;;;;;;0.63;0.63;;;10.50;99.90;;;;;;5116395;27;20440;-70
2023/06/02 01:18:29;;;;;;;0.50;0.50;;;10.40;99.90;;;;;;5116337;28;20035;-70
2023/06/02 01:20:58;;;;;;;0.50;0.50;;;10.40;99.90;;;;;;5116270;28;20421;-70
2023/06/02 01:23:32;;;;;;;0.50;0.50;;;10.40;99.90;;;;;;5116342;28;20156;-70
2023/06/02 01:25:58;;;;;;;0.50;0.50;;;10.40;99.90;;;;;;5116231;28;20062;-70
2023/06/02 01:28:24;;;;;;;0.50;0.50;;;10.30;99.90;;;;;;5116166;28;20463;-70
2023/06/02 01:30:55;;;;;;;0.57;0.57;;;10.30;99.90;;;;;;5116182;28;20043;-69
2023/06/02 01:33:43;;;;;;;0.50;0.50;;;10.20;99.90;;;;;;5115916;28;20460;-70
2023/06/02 01:36:09;;;;;;;0.57;0.57;;;10.30;99.90;;;;;;5105035;28;20047;-70
2023/06/02 01:38:36;;;;;;;0.40;0.40;;;10.30;99.90;;;;;;5115698;28;20039;-69
2023/06/02 01:41:04;;;;;;;0.50;0.50;;;10.30;99.90;;;;;;5116635;28;20050;-70
2023/06/02 01:43:32;;;;;;;0.50;0.50;;;10.20;99.90;;;;;;5115755;28;20043;-70
2023/06/02 01:45:59;;;;;;;0.50;0.50;;;10.20;99.90;;;;;;5115768;28;20036;-70
2023/06/02 01:48:28;;;;;;;0.50;0.50;;;10.20;99.90;;;;;;5115748;28;20039;-70
2023/06/02 01:50:54;;;;;;;0.50;0.50;;;10.20;99.90;;;;;;5115691;28;20039;-70
2023/06/02 01:53:20;;;;;;;1.02;1.02;;;10.20;99.90;;;;;;5115624;28;20088;-70
2023/06/02 01:55:47;;;;;;;3.38;2.17;;;10.10;99.90;;;;;;5115464;28;20063;-69
2023/06/02 01:58:13;;;;;;;0.45;0.45;;;10.10;99.90;;;;;;5115556;28;20088;-70
2023/06/02 02:00:39;;;;;;;0.50;0.50;;;10.20;99.90;;;;;;5114324;28;20043;-70
2023/06/02 02:03:04;;;;;;;0.40;0.40;;;10.20;99.90;;;;;;5115849;28;20044;-69
2023/06/02 02:05:30;;;;;;;0.50;0.50;;;10.20;99.90;;;;;;5115442;28;20118;-70
2023/06/02 02:07:57;;;;;;;0.50;0.50;;;10.20;99.90;;;;;;5114750;28;20035;-70
2023/06/02 02:10:23;;;;;;;0.50;0.50;;;10.30;99.90;;;;;;5115362;27;20047;-70
2023/06/02 02:12:48;;;;;;;0.50;0.50;;;10.30;99.90;;;;;;5115151;28;20047;-69
2023/06/02 02:15:15;;;;;;;0.50;0.50;;;10.30;99.90;;;;;;5115263;28;20076;-71
2023/06/02 02:17:45;;;;;;;0.50;0.50;;;10.30;99.90;;;;;;5115252;28;20089;-70
2023/06/02 02:20:16;;;;;;;0.50;0.50;;;10.30;99.90;;;;;;5115158;28;20048;-70
2023/06/02 02:22:43;;;;;;;0.40;0.40;;;10.30;99.90;;;;;;5115087;28;20035;-70
2023/06/02 02:25:09;;;;;;;0.50;0.50;;;11.30;99.90;;;;;;5114987;28;20085;-70
2023/06/02 02:27:35;;;;;;;0.50;0.50;;;10.40;99.90;;;;;;5115019;28;20043;-70
2023/06/02 02:30:03;;;;;;;0.50;0.50;;;10.40;99.90;;;;;;5115028;28;20069;-70
2023/06/02 02:32:29;;;;;;;0.50;0.50;;;10.30;99.90;;;;;;5115020;28;20043;-69
2023/06/02 02:34:55;;;;;;;0.50;0.50;;;10.40;99.90;;;;;;5114969;28;20046;-70
2023/06/02 02:37:20;;;;;;;0.50;0.50;;;10.70;99.90;;;;;;5114764;28;20367;-69
2023/06/02 02:39:46;;;;;;;0.50;0.50;;;10.30;99.90;;;;;;5115138;28;20054;-70
2023/06/02 02:42:12;;;;;;;0.40;0.40;;;10.30;99.90;;;;;;5114686;28;20046;-69
2023/06/02 02:44:37;;;;;;;0.50;0.50;;;10.50;99.90;;;;;;5114673;28;20050;-70
2023/06/02 02:47:03;;;;;;;0.50;0.50;;;10.40;99.90;;;;;;5114629;28;20085;-70
2023/06/02 02:49:29;;;;;;;0.50;0.50;;;10.40;99.90;;;;;;5114702;28;20039;-70
2023/06/02 02:51:54;;;;;;;0.50;0.50;;;10.40;99.90;;;;;;5114473;28;20084;-70
2023/06/02 02:54:20;;;;;;;0.50;0.50;;;10.40;99.90;;;;;;5114958;28;20032;-70
2023/06/02 02:56:46;;;;;;;0.50;0.50;;;10.90;99.90;;;;;;5114477;28;20119;-70
2023/06/02 02:59:15;;;;;;;0.50;0.50;;;10.40;99.90;;;;;;5114649;28;20036;-70
2023/06/02 03:01:43;;;;;;;0.50;0.50;;;10.40;99.90;;;;;;5114700;28;20433;-70
2023/06/02 03:04:10;;;;;;;0.70;0.70;;;10.40;99.90;;;;;;5114505;28;20054;-69
2023/06/02 03:06:40;;;;;;;0.50;0.50;;;10.40;99.90;;;;;;5114167;28;20043;-70
2023/06/02 03:09:09;;;;;;;0.50;0.50;;;10.40;99.90;;;;;;5114247;28;20077;-71
2023/06/02 03:11:35;;;;;;;0.50;0.50;;;10.40;99.90;;;;;;5114485;28;20088;-70
2023/06/02 03:14:00;;;;;;;0.50;0.50;;;10.50;99.90;;;;;;5114542;28;20039;-70
2023/06/02 03:16:28;;;;;;;0.50;0.50;;;10.40;99.90;;;;;;5114147;28;20490;-70
2023/06/02 03:18:54;;;;;;;0.50;0.50;;;10.40;99.90;;;;;;5113022;28;20055;-70
2023/06/02 03:21:21;;;;;;;0.50;0.50;;;10.40;99.90;;;;;;5113609;28;20039;-69
2023/06/02 03:23:46;;;;;;;0.45;0.45;;;10.40;99.90;;;;;;5114030;28;20047;-69
2023/06/02 03:26:12;;;;;;;0.50;0.50;;;10.40;99.90;;;;;;5114012;28;20031;-70
2023/06/02 03:28:39;;;;;;;0.50;0.50;;;10.90;99.90;;;;;;5114000;28;20273;-70
2023/06/02 03:31:05;;;;;;;0.50;0.50;;;10.50;99.90;;;;;;5112898;28;20044;-70
2023/06/02 03:33:30;;;;;;;0.50;0.50;;;10.50;99.90;;;;;;5113547;28;20032;-70
2023/06/02 03:35:56;;;;;;;0.50;0.50;;;10.40;99.90;;;;;;5113941;28;20078;-70
2023/06/02 03:38:21;;;;;;;0.60;0.60;;;10.40;99.90;;;;;;5113902;28;20031;-69
2023/06/02 03:40:48;;;;;;;0.50;0.50;;;10.50;99.90;;;;;;5113675;28;20040;-70
2023/06/02 03:43:14;;;;;;;0.50;0.50;;;10.50;99.90;;;;;;5113782;28;20044;-70
2023/06/02 03:45:40;;;;;;;0.50;0.50;;;10.50;99.90;;;;;;5113643;28;20062;-70
2023/06/02 03:48:05;;;;;;;0.50;0.50;;;10.50;99.90;;;;;;5113850;28;20048;-70
2023/06/02 03:50:31;;;;;;;0.50;0.50;;;10.50;99.90;;;;;;5113758;28;20084;-70
2023/06/02 03:52:57;;;;;;;0.50;0.50;;;10.50;99.90;;;;;;5114166;28;20074;-70
2023/06/02 03:55:24;;;;;;;0.50;0.50;;;10.50;99.90;;;;;;5112801;28;20039;-69
2023/06/02 03:57:49;;;;;;;0.50;0.50;;;10.60;99.90;;;;;;5113969;28;20047;-69
2023/06/02 04:00:15;;;;;;;0.80;0.80;;;10.50;99.90;;;;;;5113873;28;20032;-70
2023/06/02 04:02:41;;;;;;;0.50;0.50;;;10.60;99.90;;;;;;5113838;28;20051;-70
2023/06/02 04:05:07;;;;;;;0.50;0.50;;;10.60;99.90;;;;;;5113584;28;20108;-70
2023/06/02 04:07:32;;;;;;;0.50;0.50;;;10.60;99.90;;;;;;5114125;28;20043;-70
2023/06/02 04:09:58;;;;;;;0.50;0.50;;;11.40;99.90;;;;;;5114064;28;20044;-70
2023/06/02 04:12:24;;;;;;;0.50;0.50;;;10.50;99.90;;;;;;5114056;28;20119;-70
2023/06/02 04:14:49;;;;;;;0.50;0.50;;;10.60;99.90;;;;;;5113734;28;20471;-69
2023/06/02 04:17:15;;;;;;;0.50;0.50;;;10.60;99.90;;;;;;5113745;28;20032;-70
2023/06/02 04:19:40;;;;;;;0.50;0.50;;;10.60;99.90;;;;;;5113610;28;20405;-69
2023/06/02 04:22:06;;;;;;;0.50;0.50;;;10.60;99.90;;;;;;5114056;28;20115;-70
2023/06/02 04:24:32;;;;;;;0.40;0.40;;;10.70;99.90;;;;;;5113801;28;20047;-70
2023/06/02 04:26:57;;;;;;;0.50;0.50;;;10.70;99.90;;;;;;5113745;28;20036;-70
2023/06/02 04:29:23;;;;;;;0.50;0.50;;;10.70;99.90;;;;;;5112500;28;20521;-69
2023/06/02 04:31:48;;;;;;;0.50;0.50;;;11.10;99.90;;;;;;5115366;28;20039;-69
2023/06/02 04:34:14;;;;;;;0.50;0.50;;;10.70;99.90;;;;;;5117167;28;20046;-70
2023/06/02 04:36:40;;;;;;;0.50;0.50;;;10.80;99.90;;;;;;5116886;28;20122;-69
2023/06/02 04:39:07;;;;;;;0.50;0.50;;;10.80;99.90;;;;;;5116971;28;20497;-70
2023/06/02 04:41:33;;;;;;;0.50;0.50;;;11.20;99.90;;;;;;5116811;28;20043;-69
2023/06/02 04:44:00;;;;;;;0.50;0.50;;;10.80;99.90;;;;;;5117151;28;20429;-70
2023/06/02 04:46:26;;;;;;;0.50;0.50;;;10.90;99.90;;;;;;5117016;28;20043;-70
2023/06/02 04:48:53;;;;;;;0.50;0.50;;;10.80;99.90;;;;;;5116967;28;20070;-70
2023/06/02 04:51:19;;;;;;;0.50;0.50;;;11.00;99.90;;;;;;5116937;28;20043;-70
2023/06/02 04:53:45;;;;;;;0.50;0.50;;;10.90;99.90;;;;;;5116861;28;20490;-70
2023/06/02 04:56:11;;;;;;;0.50;0.50;;;10.90;99.90;;;;;;5116721;27;20055;-70
2023/06/02 04:58:37;;;;;;;0.50;0.50;;;11.00;99.90;;;;;;5116504;28;20039;-70
2023/06/02 05:01:03;;;;;;;0.50;0.50;;;11.00;99.90;;;;;;5116772;28;20042;-70
2023/06/02 05:03:29;;;;;;;0.40;0.40;;;11.10;99.90;;;;;;5116386;28;20055;-70
2023/06/02 05:05:55;;;;;;;0.50;0.50;;;11.20;99.90;;;;;;5116507;28;20043;-70
2023/06/02 05:08:21;;;;;;;0.40;0.40;;;11.30;99.90;;;;;;5117033;28;20126;-70
2023/06/02 05:10:47;;;;;;;0.40;0.40;;;11.20;99.90;;;;;;5116605;28;20053;-70
2023/06/02 05:13:14;;;;;;;0.50;0.50;;;11.20;99.90;;;;;;5116587;28;20126;-70
2023/06/02 05:15:39;;;;;;;0.85;0.60;;;11.30;99.90;;;;;;5116634;28;20065;-69
2023/06/02 05:18:05;;;;;;;0.40;0.40;;;11.50;99.90;;;;;;5116421;28;20043;-69
2023/06/02 05:20:30;;;;;;;0.40;0.40;;;11.30;99.90;;;;;;5116398;28;20039;-69
2023/06/02 05:22:56;;;;;;;0.40;0.40;;;11.90;99.90;;;;;;5116304;28;20035;-70
2023/06/02 05:25:22;;;;;;;1.73;1.50;;;11.40;99.90;;;;;;5116285;28;20047;-70
2023/06/02 05:27:47;;;;;;;0.50;0.50;;;11.40;99.90;;;;;;5116490;28;20036;-69
2023/06/02 05:30:14;;;;;;;0.50;0.50;;;11.50;99.90;;;;;;5116225;28;20032;-70
2023/06/02 05:32:40;;;;;;;0.50;0.50;;;11.50;99.90;;;;;;5116240;28;20044;-70
2023/06/02 05:35:06;;;;;;;0.50;0.50;;;11.50;99.90;;;;;;5116051;28;20482;-71
2023/06/02 05:37:31;;;;;;;0.50;0.50;;;11.50;99.90;;;;;;5116128;28;20031;-69
2023/06/02 05:39:57;;;;;;;0.50;0.50;;;11.50;99.90;;;;;;5115964;28;20380;-69
2023/06/02 05:42:23;;;;;;;0.50;0.50;;;11.50;99.90;;;;;;5115708;28;20032;-69
2023/06/02 05:44:49;;;;;;;0.50;0.50;;;11.50;99.90;;;;;;5115330;28;20501;-70
2023/06/02 05:47:15;;;;;;;0.50;0.50;;;11.90;99.90;;;;;;5115801;28;20123;-70
2023/06/02 05:49:40;;;;;;;0.45;0.45;;;11.60;99.90;;;;;;5115937;28;20035;-69
2023/06/02 05:52:06;;;;;;;0.50;0.50;;;11.60;99.90;;;;;;5115558;28;20114;-70
2023/06/02 05:54:32;;;;;;;0.50;0.50;;;11.60;99.90;;;;;;5115794;28;20040;-70
2023/06/02 05:56:57;;;;;;;0.50;0.50;;;11.60;99.90;;;;;;5115593;28;20042;-70
2023/06/02 05:59:23;;;;;;;0.50;0.50;;;11.70;99.90;;;;;;5115823;28;20036;-70
2023/06/02 06:01:49;;;;;;;0.40;0.40;;;11.60;99.90;;;;;;5115486;28;20073;-70
2023/06/02 06:04:14;;;;;;;0.50;0.50;;;11.70;99.90;;;;;;5115662;28;20032;-70
2023/06/02 06:06:40;;;;;;;0.50;0.50;;;11.70;99.90;;;;;;5115494;28;20035;-70
2023/06/02 06:09:05;;;;;;;0.50;0.50;;;11.80;99.90;;;;;;5115530;28;20036;-70
2023/06/02 06:11:31;;;;;;;0.40;0.40;;;11.80;99.90;;;;;;5115505;28;20065;-70
2023/06/02 06:13:57;;;;;;;0.50;0.50;;;11.80;99.90;;;;;;5115302;28;20039;-69
2023/06/02 06:16:22;;;;;;;0.50;0.50;;;12.30;99.90;;;;;;5115289;28;20126;-71
2023/06/02 06:18:48;;;;;;;0.40;0.40;;;12.00;99.90;;;;;;5115302;28;20072;-70
2023/06/02 06:21:14;;;;;;;0.50;0.50;;;12.00;99.90;;;;;;5115253;28;20472;-70
2023/06/02 06:23:39;;;;;;;0.50;0.50;;;12.00;99.90;;;;;;5115232;28;20043;-69
2023/06/02 06:26:05;;;;;;;0.50;0.50;;;12.10;99.90;;;;;;5115159;28;20036;-69
2023/06/02 06:28:31;;;;;;;0.50;0.50;;;12.60;99.90;;;;;;5115169;28;20421;-69
2023/06/02 06:30:56;;;;;;;3.10;2.63;;;12.20;99.90;;;;;;5115077;28;20054;-70
2023/06/02 06:33:22;;;;;;;0.50;0.50;;;12.30;99.90;;;;;;5114964;28;20168;-69
2023/06/02 06:35:47;;;;;;;0.50;0.50;;;12.30;99.90;;;;;;5115004;28;20537;-70
2023/06/02 06:38:13;;;;;;;0.50;0.50;;;12.40;99.90;;;;;;5115418;28;20039;-69
2023/06/02 06:40:39;;;;;;;0.50;0.50;;;12.50;99.90;;;;;;5114841;28;20091;-69
2023/06/02 06:43:04;;;;;;;0.50;0.50;;;13.00;99.90;;;;;;5114810;28;20039;-69
2023/06/02 06:45:30;;;;;;;0.40;0.40;;;12.70;99.90;;;;;;5114790;27;20531;-69
2023/06/02 06:47:56;;;;;;;0.50;0.50;;;12.50;99.90;;;;;;5114436;28;20042;-70
2023/06/02 06:50:21;;;;;;;0.50;0.50;;;12.60;99.90;;;;;;5114751;28;20161;-70
2023/06/02 06:52:48;;;;;;;0.95;0.95;;;12.60;99.90;;;;;;5114718;28;20050;-69
2023/06/02 06:55:14;;;;;;;0.80;0.80;;;12.60;99.90;;;;;;5114622;28;20044;-70
2023/06/02 06:57:40;;;;;;;0.50;0.50;;;12.70;99.90;;;;;;5114698;28;20054;-70
2023/06/02 07:00:06;;;;;;;0.50;0.50;;;12.80;99.90;;;;;;5114768;28;20085;-70
2023/06/02 07:02:32;;;;;;;0.50;0.50;;;12.80;99.90;;;;;;5114609;28;20064;-69
2023/06/02 07:04:58;;;;;;;0.50;0.50;;;12.90;99.90;;;;;;5114894;28;20036;-69
2023/06/02 07:07:23;;;;;;;0.50;0.50;;;12.90;99.90;;;;;;5114512;28;20516;-70
2023/06/02 07:09:49;;;;;;;0.50;0.50;;;13.00;99.90;;;;;;5114775;28;20427;-69
2023/06/02 07:12:15;;;;;;;0.50;0.50;;;12.90;99.90;;;;;;5114519;28;20447;-69
2023/06/02 07:14:41;;;;;;;0.50;0.50;;;13.00;99.90;;;;;;5114530;28;20126;-70
2023/06/02 07:17:07;;;;;;;0.40;0.40;;;13.10;99.90;;;;;;5114389;28;20123;-70
2023/06/02 07:19:33;;;;;;;0.50;0.50;;;13.10;99.90;;;;;;5114347;28;20093;-69
2023/06/02 07:21:58;;;;;;;0.50;0.50;;;13.20;99.90;;;;;;5114686;28;20040;-70
2023/06/02 07:24:24;;;;;;;0.50;0.50;;;13.10;99.90;;;;;;5114769;28;20082;-70
2023/06/02 07:26:49;;;;;;;0.40;0.40;;;13.40;99.90;;;;;;5114194;28;20042;-70
2023/06/02 07:29:15;;;;;;;0.80;0.80;;;13.40;99.90;;;;;;5114211;28;20043;-70
2023/06/02 07:31:43;;;;;;;0.60;0.60;;;13.40;99.90;;;;;;5113883;28;20047;-69
2023/06/02 07:34:08;;;;;;;3.50;3.25;;;13.40;99.90;;;;;;5113995;28;20521;-69
2023/06/02 07:36:34;;;;;;;2.40;2.20;;;13.40;99.90;;;;;;5114549;28;20032;-69
2023/06/02 07:39:00;;;;;;;0.50;0.50;;;13.40;99.90;;;;;;5114199;28;20466;-69
2023/06/02 07:41:27;;;;;;;0.50;0.50;;;13.40;99.90;;;;;;5114313;28;20380;-69
2023/06/02 07:43:53;;;;;;;0.40;0.40;;;13.50;99.90;;;;;;5114277;28;20093;-70
2023/06/02 07:46:19;;;;;;;0.40;0.40;;;13.50;99.90;;;;;;5113986;28;20421;-70
2023/06/02 07:48:45;;;;;;;0.50;0.50;;;13.60;99.90;;;;;;5113569;28;20277;-70
2023/06/02 07:51:10;;;;;;;0.50;0.50;;;13.60;99.90;;;;;;5113886;28;20043;-70
2023/06/02 07:53:36;;;;;;;0.40;0.40;;;13.70;99.90;;;;;;5113655;28;20085;-70
2023/06/02 07:56:01;;;;;;;0.70;0.70;;;13.80;99.90;;;;;;5113937;28;20042;-69
2023/06/02 07:58:27;;;;;;;0.40;0.40;;;13.90;99.90;;;;;;5113900;28;20081;-71
2023/06/02 08:00:53;;;;;;;0.40;0.40;;;14.20;99.90;;;;;;5113833;28;20078;-69
2023/06/02 08:03:18;;;;;;;0.50;0.50;;;13.90;99.90;;;;;;5113920;28;20055;-68
2023/06/02 08:05:45;;;;;;;0.40;0.40;;;13.90;99.90;;;;;;5114342;28;20122;-69
2023/06/02 08:08:11;;;;;;;0.60;0.60;;;13.90;99.90;;;;;;5117956;28;20039;-69
2023/06/02 08:10:36;;;;;;;0.40;0.40;;;14.00;99.90;;;;;;5117944;28;20451;-69
2023/06/02 08:13:02;;;;;;;0.40;0.40;;;14.10;99.90;;;;;;5117915;28;20040;-69
2023/06/02 08:15:28;;;;;;;0.47;0.47;;;14.10;99.90;;;;;;5117851;28;20379;-70
2023/06/02 08:17:53;;;;;;;0.40;0.40;;;14.30;99.90;;;;;;5117671;28;20091;-69
2023/06/02 08:20:19;;;;;;;0.40;0.40;;;14.40;99.90;;;;;;5117751;27;20464;-68
2023/06/02 08:22:44;;;;;;;0.40;0.40;;;14.50;99.90;;;;;;5117689;28;20039;-69
2023/06/02 08:25:12;;;;;;;0.40;0.40;;;14.70;99.90;;;;;;5117697;28;20043;-69
2023/06/02 08:27:38;;;;;;;0.45;0.45;;;14.90;99.90;;;;;;5117519;28;20088;-69
2023/06/02 08:30:05;;;;;;;0.85;0.85;;;15.40;99.90;;;;;;5117911;28;20478;-69
2023/06/02 08:32:31;;;;;;;0.40;0.40;;;15.90;99.90;;;;;;5117418;28;20040;-69
2023/06/02 08:35:01;;;;;;;0.30;0.30;;;16.30;99.90;;;;;;5117946;28;20054;-70
2023/06/02 08:37:29;;;;;;;0.40;0.40;;;16.60;99.90;;;;;;5117370;28;20467;-69
2023/06/02 08:39:56;;;;;;;0.40;0.40;;;16.80;99.90;;;;;;5117399;28;20039;-69
2023/06/02 08:42:22;;;;;;;1.40;1.30;;;16.80;99.90;;;;;;5117277;28;20102;-69
2023/06/02 08:44:48;;;;;;;0.40;0.40;;;16.90;99.90;;;;;;5117360;28;20055;-69
2023/06/02 08:47:14;;;;;;;0.30;0.30;;;17.10;99.90;;;;;;5117149;28;20463;-69
2023/06/02 08:49:45;;;;;;;3.93;1.13;;;17.20;99.90;;;;;;5117189;27;20486;-69
2023/06/02 08:52:19;;;;;;;0.40;0.40;;;17.00;99.90;;;;;;5117528;28;20051;-69
2023/06/02 08:54:45;;;;;;;0.40;0.40;;;16.90;99.90;;;;;;5117085;28;20044;-69
2023/06/02 08:57:16;;;;;;;0.63;0.50;;;16.80;99.90;;;;;;5117195;27;20383;-69
2023/06/02 08:59:42;;;;;;;0.30;0.30;;;16.70;99.90;;;;;;5117051;28;20080;-69
2023/06/02 09:02:07;;;;;;;0.40;0.40;;;16.60;99.90;;;;;;5116523;28;20055;-69
2023/06/02 09:04:33;;;;;;;0.30;0.30;;;16.60;99.90;;;;;;5116973;28;20386;-69
2023/06/02 09:07:16;;;;;;;0.30;0.30;;;16.80;99.90;;;;;;5116741;28;20042;-69
2023/06/02 09:09:44;;;;;;;0.30;0.30;;;17.00;99.90;;;;;;5116786;28;20047;-69
2023/06/02 09:12:11;;;;;;;0.30;0.30;;;17.20;99.90;;;;;;5116714;28;20140;-68
2023/06/02 09:14:38;;;;;;;0.30;0.30;;;17.40;99.90;;;;;;5116689;28;20046;-69
2023/06/02 09:17:22;;;;;;;0.73;0.73;;;17.60;99.90;;;;;;5116477;28;20142;-68
2023/06/02 09:19:52;;;;;;;0.30;0.30;;;17.60;99.90;;;;;;5116222;28;20153;-70
2023/06/02 09:22:17;;;;;;;0.30;0.30;;;17.60;99.90;;;;;;5116500;28;20040;-69
2023/06/02 09:24:43;;;;;;;0.30;0.30;;;17.70;99.90;;;;;;5116546;28;20031;-69
2023/06/02 09:27:13;;;;;;;0.30;0.30;;;18.00;99.90;;;;;;5116355;28;20039;-70
2023/06/02 09:29:39;;;;;;;0.30;0.30;;;18.00;99.90;;;;;;5116412;28;20056;-69
2023/06/02 09:32:13;;;;;;;0.30;0.30;;;18.00;99.90;;;;;;5116372;28;20044;-69
2023/06/02 09:34:38;;;;;;;0.50;0.50;;;18.10;99.90;;;;;;5116334;28;20054;-69
2023/06/02 09:37:13;;;;;;;0.30;0.30;;;18.20;99.90;;;;;;5116008;28;20043;-69
2023/06/02 09:39:43;;;;;;;0.30;0.30;;;18.50;99.90;;;;;;5116061;28;20093;-70
2023/06/02 09:42:11;;;;;;;0.30;0.30;;;18.70;99.90;;;;;;5116211;27;20112;-69
2023/06/02 09:44:38;;;;;;;2.33;1.23;;;19.00;99.90;;;;;;5116178;28;20046;-69
2023/06/02 09:47:22;;;;;;;0.40;0.40;;;19.00;99.90;;;;;;5115976;28;20046;-70
2023/06/02 09:49:48;;;;;;;0.30;0.30;;;19.20;99.90;;;;;;5116081;27;20074;-69
2023/06/02 09:52:15;;;;;;;0.40;0.40;;;19.20;99.90;;;;;;5115190;28;20467;-70
2023/06/02 09:54:46;;;;;;;0.30;0.30;;;19.20;99.90;;;;;;5115301;28;20043;-70
2023/06/02 09:57:12;;;;;;;0.88;0.88;;;19.20;99.90;;;;;;5115853;28;20162;-70
2023/06/02 09:59:39;;;;;;;0.30;0.30;;;19.20;99.90;;;;;;5115699;28;20595;-70
2023/06/02 10:02:07;;;;;;;0.30;0.30;;;19.20;99.90;;;;;;5115613;28;20040;-69
2023/06/02 10:04:33;;;;;;;0.35;0.35;;;19.30;99.90;;;;;;5115506;28;20043;-69
2023/06/02 10:07:40;;;;;;;0.30;0.30;;;19.50;99.90;;;;;;5115579;28;20085;-71
2023/06/02 10:10:17;;;;;;;0.30;0.30;;;19.40;99.90;;;;;;5115993;28;20040;-70
2023/06/02 10:13:06;;;;;;;0.30;0.30;;;19.50;99.90;;;;;;5115585;28;20055;-69
2023/06/02 10:15:38;;;;;;;2.67;0.70;;;19.40;99.90;;;;;;5115788;28;20089;-69
2023/06/02 10:18:34;;;;;;;0.30;0.30;;;19.50;99.90;;;;;;5115444;28;20171;-69
2023/06/02 10:21:03;;;;;;;0.30;0.30;;;19.60;99.90;;;;;;5115322;28;20039;-69
2023/06/02 10:24:06;;;;;;;0.30;0.30;;;19.50;99.90;;;;;;5115268;28;20104;-70
2023/06/02 10:26:50;;;;;;;0.30;0.30;;;19.50;99.90;;;;;;5115147;28;20059;-70
2023/06/02 10:29:16;;;;;;;0.30;0.30;;;19.50;99.90;;;;;;5114935;28;20050;-69
2023/06/02 10:31:44;;;;;;;0.40;0.40;;;19.80;99.90;;;;;;5115145;28;20126;-70
2023/06/02 10:34:36;;;;;;;0.40;0.40;;;20.00;99.90;;;;;;5115088;28;20039;-70
2023/06/02 10:37:07;;;;;;;0.30;0.30;;;19.70;99.90;;;;;;5114823;28;20471;-69
2023/06/02 10:39:41;;;;;;;0.40;0.40;;;19.70;99.90;;;;;;5114644;28;20509;-69
2023/06/02 10:42:17;;;;;;;0.40;0.40;;;19.50;99.90;;;;;;5114924;28;20035;-70
2023/06/02 10:44:43;;;;;;;0.30;0.30;;;19.40;99.90;;;;;;5115757;28;20096;-69
2023/06/02 10:47:18;;;;;;;0.50;0.50;;;19.20;99.90;;;;;;5113396;28;20043;-69
2023/06/02 10:50:05;;;;;;;0.30;0.30;;;19.20;99.90;;;;;;5114792;28;20285;-69
2023/06/02 10:52:33;;;;;;;0.30;0.30;;;19.10;99.90;;;;;;5113950;28;20056;-70
2023/06/02 10:55:07;;;;;;;0.40;0.40;;;19.10;99.90;;;;;;5114654;28;20043;-70
2023/06/02 10:58:01;;;;;;;0.40;0.40;;;19.10;99.90;;;;;;5114989;28;20071;-69
2023/06/02 11:00:30;;;;;;;0.40;0.40;;;19.10;99.90;;;;;;5114439;28;20093;-69
2023/06/02 11:02:56;;;;;;;1.85;0.93;;;19.20;99.90;;;;;;5114643;28;20051;-69
2023/06/02 11:05:30;;;;;;;0.40;0.40;;;19.30;99.90;;;;;;5114564;28;20470;-69
2023/06/02 11:08:23;;;;;;;0.40;0.40;;;19.70;99.90;;;;;;5114519;28;20050;-69
2023/06/02 11:10:52;;;;;;;0.30;0.30;;;20.30;99.90;;;;;;5114563;28;20049;-69
2023/06/02 11:13:18;;;;;;;0.30;0.30;;;20.50;99.90;;;;;;5114530;27;20134;-70
2023/06/02 11:15:53;;;;;;;0.30;0.30;;;20.60;99.90;;;;;;5114318;28;20089;-69
2023/06/02 11:18:21;;;;;;;0.30;0.30;;;20.40;99.90;;;;;;5114899;28;20122;-69
2023/06/02 11:20:51;;;;;;;0.35;0.35;;;20.10;99.90;;;;;;5114118;28;20376;-69
2023/06/02 11:23:18;;;;;;;0.30;0.30;;;19.90;99.90;;;;;;5114380;28;20447;-69
2023/06/02 11:25:48;;;;;;;0.30;0.30;;;19.90;99.90;;;;;;5112948;28;20043;-69
2023/06/02 11:28:22;;;;;;;0.35;0.35;;;20.00;99.90;;;;;;5114072;28;20360;-69
2023/06/02 11:31:08;;;;;;;0.40;0.40;;;20.50;99.90;;;;;;5114216;28;20041;-70
2023/06/02 11:33:37;;;;;;;0.40;0.40;;;21.00;99.90;;;;;;5114144;28;20418;-69
2023/06/02 11:36:08;;;;;;;0.30;0.30;;;21.40;99.90;;;;;;5114073;28;20049;-69
2023/06/02 11:38:34;;;;;;;0.40;0.40;;;21.40;99.90;;;;;;5114072;28;20161;-71
2023/06/02 11:41:14;;;;;;;0.30;0.30;;;21.30;99.90;;;;;;5113264;28;20039;-69
2023/06/02 11:43:41;;;;;;;0.30;0.30;;;21.10;99.60;;;;;;5114050;28;20058;-70
2023/06/02 11:46:11;;;;;;;0.30;0.30;;;20.80;99.90;;;;;;5114411;28;20047;-69
2023/06/02 11:48:38;;;;;;;0.30;0.30;;;20.60;99.90;;;;;;5113963;28;20040;-69
2023/06/02 11:51:08;;;;;;;0.30;0.30;;;20.50;99.90;;;;;;5113961;28;20052;-69
2023/06/02 11:53:37;;;;;;;0.40;0.40;;;20.40;99.90;;;;;;5113876;28;20110;-69
2023/06/02 11:56:06;;;;;;;0.30;0.30;;;20.30;99.90;;;;;;5113892;28;20047;-69
2023/06/02 11:58:39;;;;;;;0.30;0.30;;;20.60;99.90;;;;;;5113745;28;20040;-69
2023/06/02 12:01:14;;;;;;;0.30;0.30;;;20.60;99.90;;;;;;5113871;28;20039;-68
2023/06/02 12:03:40;;;;;;;0.55;0.55;;;20.60;99.90;;;;;;5114168;28;20413;-69
2023/06/02 12:06:13;;;;;;;0.87;0.87;;;20.40;99.90;;;;;;5114111;28;20039;-70
2023/06/02 12:08:39;;;;;;;0.38;0.38;;;20.20;99.90;;;;;;5114173;28;20624;-69
2023/06/02 12:11:16;;;;;;;0.40;0.40;;;20.20;99.90;;;;;;5114003;28;20115;-69
2023/06/02 12:13:59;;;;;;;0.30;0.30;;;20.20;99.90;;;;;;5114129;28;20273;-69
2023/06/02 12:16:26;;;;;;;0.20;0.20;;;20.50;99.90;;;;;;5113659;28;20085;-68
2023/06/02 12:18:53;;;;;;;0.30;0.30;;;20.80;98.80;;;;;;5113657;28;20050;-69
2023/06/02 12:21:27;;;;;;;0.30;0.30;;;21.20;99.90;;;;;;5113375;28;20494;-70
2023/06/02 12:23:54;;;;;;;0.30;0.30;;;21.30;98.90;;;;;;5113480;28;20467;-70
2023/06/02 12:26:21;;;;;;;0.25;0.25;;;21.40;98.50;;;;;;5113340;28;20542;-70
2023/06/02 12:28:47;;;;;;;;;;;21.70;98.20;;;;;;5113905;28;20118;-70
2023/06/02 12:31:15;;;;;;;0.20;0.20;;;22.10;96.40;;;;;;5113680;28;19930;-70
2023/06/02 12:33:42;;;;;;;0.22;0.22;;;22.20;97.30;;;;;;5113943;28;20050;-70
2023/06/02 12:36:10;;;;;;;;;;;22.10;97.00;;;;;;5113640;28;20525;-70
2023/06/02 12:38:35;;;;;;;0.40;0.40;;;21.80;96.30;;;;;;5113571;28;19955;-70
2023/06/02 12:41:02;;;;;;;2.90;1.43;;;21.50;97.80;;;;;;5113586;28;20484;-70
2023/06/02 12:43:28;;;;;;;0.73;0.50;;;21.30;97.70;;;;;;5113501;28;20146;-70
2023/06/02 12:45:53;;;;;;;0.30;0.30;;;21.30;97.30;;;;;;5113487;28;20118;-70
2023/06/02 12:48:19;;;;;;;0.30;0.30;;;21.10;96.20;;;;;;5113403;28;20128;-69
2023/06/02 12:50:45;;;;;;;0.40;0.40;;;21.30;95.60;;;;;;5113164;28;20118;-71